sensor_id;sensor_type;location;lat;lon;timestamp;temperature;humidity
21563;DHT22;10942;47.894;11.424;2024-01-30T00:01:19;0.40;99.90
21563;DHT22;10942;47.894;11.424;2024-01-30T00:03:45;0.30;99.90
21563;DHT22;10942;47.894;11.424;2024-01-30T00:06:11;0.40;99.90
21563;DHT22;10942;47.894;11.424;2024-01-30T00:08:37;0.30;99.90
21563;DHT22;10942;47.894;11.424;2024-01-30T00:11:03;0.30;99.90
21563;DHT22;10942;47.894;11.424;2024-01-30T00:13:29;0.30;99.90
21563;DHT22;10942;47.894;11.424;2024-01-30T00:15:54;0.30;99.90
21563;DHT22;10942;47.894;11.424;2024-01-30T00:18:20;0.20;99.90
21563;DHT22;10942;47.894;11.424;2024-01-30T00:20:47;0.20;99.90
21563;DHT22;10942;47.894;11.424;2024-01-30T00:23:13;0.40;99.90
21563;DHT22;10942;47.894;11.424;2024-01-30T00:25:38;0.20;99.90
21563;DHT22;10942;47.894;11.424;2024-01-30T00:28:04;0.30;99.90
21563;DHT22;10942;47.894;11.424;2024-01-30T00:30:30;0.20;99.90
21563;DHT22;10942;47.894;11.424;2024-01-30T00:32:56;0.20;99.90
21563;DHT22;10942;47.894;11.424;2024-01-30T00:35:21;0.10;99.90
21563;DHT22;10942;47.894;11.424;2024-01-30T00:37:48;0.10;99.90
21563;DHT22;10942;47.894;11.424;2024-01-30T00:40:14;0.10;99.90
21563;DHT22;10942;47.894;11.424;2024-01-30T00:42:42;0.10;99.90
21563;DHT22;10942;47.894;11.424;2024-01-30T00:45:15;0.10;99.90
21563;DHT22;10942;47.894;11.424;2024-01-30T00:47:41;0.10;99.90
21563;DHT22;10942;47.894;11.424;2024-01-30T00:50:07;0.10;99.90
21563;DHT22;10942;47.894;11.424;2024-01-30T00:52:33;0.00;99.90
21563;DHT22;10942;47.894;11.424;2024-01-30T00:54:59;0.00;99.90
21563;DHT22;10942;47.894;11.424;2024-01-30T00:57:25;-0.10;99.90
21563;DHT22;10942;47.894;11.424;2024-01-30T00:59:51;-0.10;99.90
21563;DHT22;10942;47.894;11.424;2024-01-30T01:02:16;-0.10;99.90
21563;DHT22;10942;47.894;11.424;2024-01-30T01:04:45;-0.10;99.90
21563;DHT22;10942;47.894;11.424;2024-01-30T01:07:11;-0.20;99.90
21563;DHT22;10942;47.894;11.424;2024-01-30T01:09:37;-0.20;99.90
21563;DHT22;10942;47.894;11.424;2024-01-30T01:12:03;-0.20;99.90
21563;DHT22;10942;47.894;11.424;2024-01-30T01:14:29;-0.20;99.90
21563;DHT22;10942;47.894;11.424;2024-01-30T01:16:55;-0.20;99.90
21563;DHT22;10942;47.894;11.424;2024-01-30T01:19:21;-0.20;99.90
21563;DHT22;10942;47.894;11.424;2024-01-30T01:21:47;-0.20;99.90
21563;DHT22;10942;47.894;11.424;2024-01-30T01:24:13;-0.20;99.90
21563;DHT22;10942;47.894;11.424;2024-01-30T01:26:39;-0.20;99.90
21563;DHT22;10942;47.894;11.424;2024-01-30T01:29:06;-0.30;99.90
21563;DHT22;10942;47.894;11.424;2024-01-30T01:31:38;-0.30;99.90
21563;DHT22;10942;47.894;11.424;2024-01-30T01:34:11;-0.30;99.90
21563;DHT22;10942;47.894;11.424;2024-01-30T01:36:38;-0.30;99.90
21563;DHT22;10942;47.894;11.424;2024-01-30T01:39:03;-0.30;99.90
21563;DHT22;10942;47.894;11.424;2024-01-30T01:41:32;-0.40;99.90
21563;DHT22;10942;47.894;11.424;2024-01-30T01:43:59;-0.50;99.90
21563;DHT22;10942;47.894;11.424;2024-01-30T01:46:27;-0.50;99.90
21563;DHT22;10942;47.894;11.424;2024-01-30T01:48:53;-0.40;99.90
21563;DHT22;10942;47.894;11.424;2024-01-30T01:51:20;-0.50;99.90
21563;DHT22;10942;47.894;11.424;2024-01-30T01:53:47;-0.50;99.90
21563;DHT22;10942;47.894;11.424;2024-01-30T01:56:12;-0.50;99.90
21563;DHT22;10942;47.894;11.424;2024-01-30T01:58:38;-0.50;99.90
21563;DHT22;10942;47.894;11.424;2024-01-30T02:01:04;-0.50;99.90
21563;DHT22;10942;47.894;11.424;2024-01-30T02:03:30;-0.50;99.90
21563;DHT22;10942;47.894;11.424;2024-01-30T02:05:56;-0.50;99.90
21563;DHT22;10942;47.894;11.424;2024-01-30T02:08:23;-0.60;99.90
21563;DHT22;10942;47.894;11.424;2024-01-30T02:10:49;-0.60;99.90
21563;DHT22;10942;47.894;11.424;2024-01-30T02:13:15;-0.60;99.90
21563;DHT22;10942;47.894;11.424;2024-01-30T02:15:41;-0.60;99.90
21563;DHT22;10942;47.894;11.424;2024-01-30T02:18:07;-0.60;99.90
21563;DHT22;10942;47.894;11.424;2024-01-30T02:20:35;-0.70;99.90
21563;DHT22;10942;47.894;11.424;2024-01-30T02:23:01;-0.70;99.90
21563;DHT22;10942;47.894;11.424;2024-01-30T02:25:45;-0.70;99.90
21563;DHT22;10942;47.894;11.424;2024-01-30T02:28:14;-0.70;99.90
21563;DHT22;10942;47.894;11.424;2024-01-30T02:30:40;-0.70;99.90
21563;DHT22;10942;47.894;11.424;2024-01-30T02:33:08;-0.70;99.90
21563;DHT22;10942;47.894;11.424;2024-01-30T02:35:33;-0.70;99.90
21563;DHT22;10942;47.894;11.424;2024-01-30T02:37:59;-0.70;99.90
21563;DHT22;10942;47.894;11.424;2024-01-30T02:40:25;-0.70;99.90
21563;DHT22;10942;47.894;11.424;2024-01-30T02:42:51;-0.80;99.90
21563;DHT22;10942;47.894;11.424;2024-01-30T02:45:17;-0.80;99.90
21563;DHT22;10942;47.894;11.424;2024-01-30T02:47:42;-0.80;99.90
21563;DHT22;10942;47.894;11.424;2024-01-30T02:50:08;-0.80;99.90
21563;DHT22;10942;47.894;11.424;2024-01-30T02:52:34;-0.80;99.90
21563;DHT22;10942;47.894;11.424;2024-01-30T02:55:00;-0.80;99.90
21563;DHT22;10942;47.894;11.424;2024-01-30T02:57:26;-0.80;99.90
21563;DHT22;10942;47.894;11.424;2024-01-30T02:59:51;-0.80;99.90
21563;DHT22;10942;47.894;11.424;2024-01-30T03:02:17;-0.80;99.90
21563;DHT22;10942;47.894;11.424;2024-01-30T03:04:43;-0.80;99.90
21563;DHT22;10942;47.894;11.424;2024-01-30T03:07:09;-0.80;99.90
21563;DHT22;10942;47.894;11.424;2024-01-30T03:09:36;-0.90;99.90
21563;DHT22;10942;47.894;11.424;2024-01-30T03:12:02;-0.80;99.90
21563;DHT22;10942;47.894;11.424;2024-01-30T03:14:31;-0.90;99.90
21563;DHT22;10942;47.894;11.424;2024-01-30T03:16:57;-0.90;99.90
21563;DHT22;10942;47.894;11.424;2024-01-30T03:19:23;-0.90;99.90
21563;DHT22;10942;47.894;11.424;2024-01-30T03:21:49;-0.90;99.90
21563;DHT22;10942;47.894;11.424;2024-01-30T03:24:15;-0.90;99.90
21563;DHT22;10942;47.894;11.424;2024-01-30T03:26:40;-1.00;99.90
21563;DHT22;10942;47.894;11.424;2024-01-30T03:29:06;-1.00;99.90
21563;DHT22;10942;47.894;11.424;2024-01-30T03:31:32;-1.00;99.90
21563;DHT22;10942;47.894;11.424;2024-01-30T03:33:57;-1.00;99.90
21563;DHT22;10942;47.894;11.424;2024-01-30T03:36:23;-1.10;99.90
21563;DHT22;10942;47.894;11.424;2024-01-30T03:38:49;-1.10;99.90
21563;DHT22;10942;47.894;11.424;2024-01-30T03:41:15;-1.10;99.90
21563;DHT22;10942;47.894;11.424;2024-01-30T03:43:41;-1.10;99.90
21563;DHT22;10942;47.894;11.424;2024-01-30T03:46:06;-1.10;99.90
21563;DHT22;10942;47.894;11.424;2024-01-30T03:48:32;-1.20;99.90
21563;DHT22;10942;47.894;11.424;2024-01-30T03:50:58;-1.20;99.90
21563;DHT22;10942;47.894;11.424;2024-01-30T03:53:23;-1.20;99.90
21563;DHT22;10942;47.894;11.424;2024-01-30T03:55:49;-1.20;99.90
21563;DHT22;10942;47.894;11.424;2024-01-30T03:58:15;-1.20;99.90
21563;DHT22;10942;47.894;11.424;2024-01-30T04:00:40;-1.20;99.90
21563;DHT22;10942;47.894;11.424;2024-01-30T04:03:06;-1.30;99.90
21563;DHT22;10942;47.894;11.424;2024-01-30T04:05:32;-1.30;99.90
21563;DHT22;10942;47.894;11.424;2024-01-30T04:07:58;-1.30;99.90
21563;DHT22;10942;47.894;11.424;2024-01-30T04:10:24;-1.30;99.90
21563;DHT22;10942;47.894;11.424;2024-01-30T04:12:51;-1.40;99.90
21563;DHT22;10942;47.894;11.424;2024-01-30T04:15:17;-1.40;99.90
21563;DHT22;10942;47.894;11.424;2024-01-30T04:17:44;-1.40;99.90
21563;DHT22;10942;47.894;11.424;2024-01-30T04:20:16;-1.40;99.90
21563;DHT22;10942;47.894;11.424;2024-01-30T04:25:12;-1.40;99.90
21563;DHT22;10942;47.894;11.424;2024-01-30T04:27:39;-1.40;99.90
21563;DHT22;10942;47.894;11.424;2024-01-30T04:30:05;-1.40;99.90
21563;DHT22;10942;47.894;11.424;2024-01-30T04:32:32;-1.40;99.90
21563;DHT22;10942;47.894;11.424;2024-01-30T04:34:58;-1.40;99.90
21563;DHT22;10942;47.894;11.424;2024-01-30T04:37:24;-1.50;99.90
21563;DHT22;10942;47.894;11.424;2024-01-30T04:39:50;-1.40;99.90
21563;DHT22;10942;47.894;11.424;2024-01-30T04:42:16;-1.50;99.90
21563;DHT22;10942;47.894;11.424;2024-01-30T04:44:42;-1.40;99.90
21563;DHT22;10942;47.894;11.424;2024-01-30T04:49:36;-1.50;99.90
21563;DHT22;10942;47.894;11.424;2024-01-30T04:52:02;-1.50;99.90
21563;DHT22;10942;47.894;11.424;2024-01-30T04:54:28;-1.50;99.90
21563;DHT22;10942;47.894;11.424;2024-01-30T04:56:54;-1.50;99.90
21563;DHT22;10942;47.894;11.424;2024-01-30T04:59:19;-1.50;99.90
21563;DHT22;10942;47.894;11.424;2024-01-30T05:01:45;-1.50;99.90
21563;DHT22;10942;47.894;11.424;2024-01-30T05:04:10;-1.50;99.90
21563;DHT22;10942;47.894;11.424;2024-01-30T05:06:37;-1.60;99.90
21563;DHT22;10942;47.894;11.424;2024-01-30T05:09:03;-1.60;99.90
21563;DHT22;10942;47.894;11.424;2024-01-30T05:11:31;-1.60;99.90
21563;DHT22;10942;47.894;11.424;2024-01-30T05:14:02;-1.60;99.90
21563;DHT22;10942;47.894;11.424;2024-01-30T05:16:27;-1.60;99.90
21563;DHT22;10942;47.894;11.424;2024-01-30T05:18:53;-1.60;99.90
21563;DHT22;10942;47.894;11.424;2024-01-30T05:21:19;-1.60;99.90
21563;DHT22;10942;47.894;11.424;2024-01-30T05:23:44;-1.60;99.90
21563;DHT22;10942;47.894;11.424;2024-01-30T05:26:10;-1.60;99.90
21563;DHT22;10942;47.894;11.424;2024-01-30T05:28:36;-1.70;99.90
21563;DHT22;10942;47.894;11.424;2024-01-30T05:31:01;-1.70;99.90
21563;DHT22;10942;47.894;11.424;2024-01-30T05:33:27;-1.70;99.90
21563;DHT22;10942;47.894;11.424;2024-01-30T05:35:53;-1.70;99.90
21563;DHT22;10942;47.894;11.424;2024-01-30T05:38:20;-1.70;99.90
21563;DHT22;10942;47.894;11.424;2024-01-30T05:40:46;-1.70;99.90
21563;DHT22;10942;47.894;11.424;2024-01-30T05:43:11;-1.70;99.90
21563;DHT22;10942;47.894;11.424;2024-01-30T05:45:37;-1.70;99.90
21563;DHT22;10942;47.894;11.424;2024-01-30T05:48:03;-1.80;99.90
21563;DHT22;10942;47.894;11.424;2024-01-30T05:50:30;-1.70;99.90
21563;DHT22;10942;47.894;11.424;2024-01-30T05:52:55;-1.70;99.90
21563;DHT22;10942;47.894;11.424;2024-01-30T05:55:21;-1.70;99.90
21563;DHT22;10942;47.894;11.424;2024-01-30T05:57:47;-1.80;99.90
21563;DHT22;10942;47.894;11.424;2024-01-30T06:00:13;-1.90;99.90
21563;DHT22;10942;47.894;11.424;2024-01-30T06:02:38;-1.90;99.90
21563;DHT22;10942;47.894;11.424;2024-01-30T06:05:04;-1.90;99.90
21563;DHT22;10942;47.894;11.424;2024-01-30T06:07:30;-1.90;99.90
21563;DHT22;10942;47.894;11.424;2024-01-30T06:09:56;-1.90;99.90
21563;DHT22;10942;47.894;11.424;2024-01-30T06:12:21;-1.90;99.90
21563;DHT22;10942;47.894;11.424;2024-01-30T06:14:47;-1.90;99.90
21563;DHT22;10942;47.894;11.424;2024-01-30T06:17:13;-1.90;99.90
21563;DHT22;10942;47.894;11.424;2024-01-30T06:19:39;-1.90;99.90
21563;DHT22;10942;47.894;11.424;2024-01-30T06:22:05;-1.90;99.90
21563;DHT22;10942;47.894;11.424;2024-01-30T06:24:30;-1.90;99.90
21563;DHT22;10942;47.894;11.424;2024-01-30T06:26:56;-1.90;99.90
21563;DHT22;10942;47.894;11.424;2024-01-30T06:29:22;-1.90;99.90
21563;DHT22;10942;47.894;11.424;2024-01-30T06:31:50;-1.90;99.90
21563;DHT22;10942;47.894;11.424;2024-01-30T06:34:16;-1.90;99.90
21563;DHT22;10942;47.894;11.424;2024-01-30T06:36:42;-1.90;99.90
21563;DHT22;10942;47.894;11.424;2024-01-30T06:39:07;-1.90;99.90
21563;DHT22;10942;47.894;11.424;2024-01-30T06:41:33;-1.90;99.90
21563;DHT22;10942;47.894;11.424;2024-01-30T06:43:59;-1.90;99.90
21563;DHT22;10942;47.894;11.424;2024-01-30T06:46:25;-1.90;99.90
21563;DHT22;10942;47.894;11.424;2024-01-30T06:48:51;-1.90;99.90
21563;DHT22;10942;47.894;11.424;2024-01-30T06:51:16;-1.90;99.90
21563;DHT22;10942;47.894;11.424;2024-01-30T06:53:42;-1.80;99.90
21563;DHT22;10942;47.894;11.424;2024-01-30T06:56:08;-1.80;99.90
21563;DHT22;10942;47.894;11.424;2024-01-30T06:58:34;-1.80;99.90
21563;DHT22;10942;47.894;11.424;2024-01-30T07:00:59;-1.80;99.90
21563;DHT22;10942;47.894;11.424;2024-01-30T07:03:25;-1.80;99.90
21563;DHT22;10942;47.894;11.424;2024-01-30T07:05:51;-1.70;99.90
21563;DHT22;10942;47.894;11.424;2024-01-30T07:08:17;-1.50;99.90
21563;DHT22;10942;47.894;11.424;2024-01-30T07:10:43;-1.40;99.90
21563;DHT22;10942;47.894;11.424;2024-01-30T07:13:12;-1.20;99.90
21563;DHT22;10942;47.894;11.424;2024-01-30T07:15:38;-1.00;99.90
21563;DHT22;10942;47.894;11.424;2024-01-30T07:18:05;-0.80;99.90
21563;DHT22;10942;47.894;11.424;2024-01-30T07:20:31;-0.80;99.90
21563;DHT22;10942;47.894;11.424;2024-01-30T07:23:00;-0.50;99.90
21563;DHT22;10942;47.894;11.424;2024-01-30T07:25:26;-0.20;99.90
21563;DHT22;10942;47.894;11.424;2024-01-30T07:27:58;-0.10;99.90
21563;DHT22;10942;47.894;11.424;2024-01-30T07:30:24;0.20;99.90
21563;DHT22;10942;47.894;11.424;2024-01-30T07:32:50;0.20;99.90
21563;DHT22;10942;47.894;11.424;2024-01-30T07:35:15;0.40;99.90
21563;DHT22;10942;47.894;11.424;2024-01-30T07:37:41;0.50;99.90
21563;DHT22;10942;47.894;11.424;2024-01-30T07:40:07;0.70;99.90
21563;DHT22;10942;47.894;11.424;2024-01-30T07:42:33;0.80;99.90
21563;DHT22;10942;47.894;11.424;2024-01-30T07:45:00;1.00;99.90
21563;DHT22;10942;47.894;11.424;2024-01-30T07:47:25;1.20;99.90
21563;DHT22;10942;47.894;11.424;2024-01-30T07:49:51;1.20;99.90
21563;DHT22;10942;47.894;11.424;2024-01-30T07:52:17;1.20;99.90
21563;DHT22;10942;47.894;11.424;2024-01-30T07:54:43;1.40;99.90
21563;DHT22;10942;47.894;11.424;2024-01-30T07:57:08;1.70;99.90
21563;DHT22;10942;47.894;11.424;2024-01-30T07:59:34;1.90;99.90
21563;DHT22;10942;47.894;11.424;2024-01-30T08:04:26;2.50;99.90
21563;DHT22;10942;47.894;11.424;2024-01-30T08:06:51;2.50;99.90
21563;DHT22;10942;47.894;11.424;2024-01-30T08:09:17;2.60;99.90
21563;DHT22;10942;47.894;11.424;2024-01-30T08:11:43;3.00;99.90
21563;DHT22;10942;47.894;11.424;2024-01-30T08:14:09;3.10;99.90
21563;DHT22;10942;47.894;11.424;2024-01-30T08:16:34;3.20;99.90
21563;DHT22;10942;47.894;11.424;2024-01-30T08:19:00;3.50;99.90
21563;DHT22;10942;47.894;11.424;2024-01-30T08:21:26;3.60;99.90
21563;DHT22;10942;47.894;11.424;2024-01-30T08:23:52;3.70;99.90
21563;DHT22;10942;47.894;11.424;2024-01-30T08:26:18;3.90;99.90
21563;DHT22;10942;47.894;11.424;2024-01-30T08:28:44;3.80;99.90
21563;DHT22;10942;47.894;11.424;2024-01-30T08:31:10;3.70;99.90
21563;DHT22;10942;47.894;11.424;2024-01-30T08:33:37;3.90;99.90
21563;DHT22;10942;47.894;11.424;2024-01-30T08:36:03;4.00;99.90
21563;DHT22;10942;47.894;11.424;2024-01-30T08:38:29;4.00;99.90
21563;DHT22;10942;47.894;11.424;2024-01-30T08:40:55;4.00;99.90
21563;DHT22;10942;47.894;11.424;2024-01-30T08:43:21;4.20;99.90
21563;DHT22;10942;47.894;11.424;2024-01-30T08:45:47;4.30;99.90
21563;DHT22;10942;47.894;11.424;2024-01-30T08:48:12;4.30;99.90
21563;DHT22;10942;47.894;11.424;2024-01-30T08:50:38;4.40;99.90
21563;DHT22;10942;47.894;11.424;2024-01-30T08:53:04;4.90;99.90
21563;DHT22;10942;47.894;11.424;2024-01-30T08:55:30;4.90;99.90
21563;DHT22;10942;47.894;11.424;2024-01-30T09:00:21;5.40;99.90
21563;DHT22;10942;47.894;11.424;2024-01-30T09:05:13;5.60;99.90
21563;DHT22;10942;47.894;11.424;2024-01-30T09:07:39;5.70;99.90
21563;DHT22;10942;47.894;11.424;2024-01-30T09:10:05;6.00;99.90
21563;DHT22;10942;47.894;11.424;2024-01-30T09:12:31;6.20;99.90
21563;DHT22;10942;47.894;11.424;2024-01-30T09:14:57;6.40;99.90
21563;DHT22;10942;47.894;11.424;2024-01-30T09:17:23;6.40;99.90
21563;DHT22;10942;47.894;11.424;2024-01-30T09:19:48;6.40;99.90
21563;DHT22;10942;47.894;11.424;2024-01-30T09:22:15;6.60;99.90
21563;DHT22;10942;47.894;11.424;2024-01-30T09:27:07;7.10;99.90
21563;DHT22;10942;47.894;11.424;2024-01-30T09:29:33;7.40;99.90
21563;DHT22;10942;47.894;11.424;2024-01-30T09:32:01;7.80;99.90
21563;DHT22;10942;47.894;11.424;2024-01-30T09:34:27;8.10;99.90
21563;DHT22;10942;47.894;11.424;2024-01-30T09:36:53;8.20;99.90
21563;DHT22;10942;47.894;11.424;2024-01-30T09:39:18;8.90;99.90
21563;DHT22;10942;47.894;11.424;2024-01-30T09:41:51;9.40;99.90
21563;DHT22;10942;47.894;11.424;2024-01-30T09:44:20;9.40;99.90
21563;DHT22;10942;47.894;11.424;2024-01-30T09:46:47;9.40;99.90
21563;DHT22;10942;47.894;11.424;2024-01-30T09:49:15;9.60;99.90
21563;DHT22;10942;47.894;11.424;2024-01-30T09:59:06;11.00;99.90
21563;DHT22;10942;47.894;11.424;2024-01-30T10:01:34;10.90;99.90
21563;DHT22;10942;47.894;11.424;2024-01-30T10:04:01;10.90;99.90
21563;DHT22;10942;47.894;11.424;2024-01-30T10:06:26;11.30;99.90
21563;DHT22;10942;47.894;11.424;2024-01-30T10:08:53;11.50;99.90
21563;DHT22;10942;47.894;11.424;2024-01-30T10:11:18;11.60;99.90
21563;DHT22;10942;47.894;11.424;2024-01-30T10:13:44;11.70;99.90
21563;DHT22;10942;47.894;11.424;2024-01-30T10:16:10;11.90;99.90
21563;DHT22;10942;47.894;11.424;2024-01-30T10:18:35;12.30;99.90
21563;DHT22;10942;47.894;11.424;2024-01-30T10:21:01;12.70;99.90
21563;DHT22;10942;47.894;11.424;2024-01-30T10:23:27;13.10;99.90
21563;DHT22;10942;47.894;11.424;2024-01-30T10:25:53;13.20;99.90
21563;DHT22;10942;47.894;11.424;2024-01-30T10:28:19;12.90;99.90
21563;DHT22;10942;47.894;11.424;2024-01-30T10:30:44;12.80;99.90
21563;DHT22;10942;47.894;11.424;2024-01-30T10:33:10;12.00;99.90
21563;DHT22;10942;47.894;11.424;2024-01-30T10:35:35;11.60;99.90
21563;DHT22;10942;47.894;11.424;2024-01-30T10:38:01;11.60;99.90
21563;DHT22;10942;47.894;11.424;2024-01-30T10:40:29;12.00;99.90
21563;DHT22;10942;47.894;11.424;2024-01-30T10:47:55;14.00;99.90
21563;DHT22;10942;47.894;11.424;2024-01-30T10:55:21;15.70;99.90
21563;DHT22;10942;47.894;11.424;2024-01-30T10:57:49;15.70;99.90
21563;DHT22;10942;47.894;11.424;2024-01-30T11:00:15;15.90;99.90
21563;DHT22;10942;47.894;11.424;2024-01-30T11:07:35;16.70;99.90
21563;DHT22;10942;47.894;11.424;2024-01-30T11:10:04;16.60;99.90
21563;DHT22;10942;47.894;11.424;2024-01-30T11:12:37;16.60;99.90
21563;DHT22;10942;47.894;11.424;2024-01-30T11:15:03;16.40;99.90
21563;DHT22;10942;47.894;11.424;2024-01-30T11:20:29;15.80;99.90
21563;DHT22;10942;47.894;11.424;2024-01-30T11:22:59;15.20;99.90
21563;DHT22;10942;47.894;11.424;2024-01-30T11:25:27;14.50;99.90
21563;DHT22;10942;47.894;11.424;2024-01-30T11:27:56;14.20;99.90
21563;DHT22;10942;47.894;11.424;2024-01-30T11:33:10;13.10;99.90
21563;DHT22;10942;47.894;11.424;2024-01-30T11:35:43;12.90;99.90
21563;DHT22;10942;47.894;11.424;2024-01-30T11:38:16;12.80;99.90
21563;DHT22;10942;47.894;11.424;2024-01-30T11:40:43;12.50;99.90
21563;DHT22;10942;47.894;11.424;2024-01-30T11:43:09;12.50;99.90
21563;DHT22;10942;47.894;11.424;2024-01-30T11:45:36;12.40;99.90
21563;DHT22;10942;47.894;11.424;2024-01-30T11:48:02;12.20;99.90
21563;DHT22;10942;47.894;11.424;2024-01-30T11:50:34;12.00;99.90
21563;DHT22;10942;47.894;11.424;2024-01-30T11:53:00;12.10;99.90
21563;DHT22;10942;47.894;11.424;2024-01-30T11:55:26;12.00;99.90
21563;DHT22;10942;47.894;11.424;2024-01-30T11:57:55;11.90;99.90
21563;DHT22;10942;47.894;11.424;2024-01-30T12:00:21;12.00;99.90
21563;DHT22;10942;47.894;11.424;2024-01-30T12:02:55;12.20;99.90
21563;DHT22;10942;47.894;11.424;2024-01-30T12:05:26;12.00;99.90
21563;DHT22;10942;47.894;11.424;2024-01-30T12:07:52;11.90;99.90
21563;DHT22;10942;47.894;11.424;2024-01-30T12:10:18;12.00;99.90
21563;DHT22;10942;47.894;11.424;2024-01-30T12:12:47;12.00;99.90
21563;DHT22;10942;47.894;11.424;2024-01-30T12:15:13;12.10;99.90
21563;DHT22;10942;47.894;11.424;2024-01-30T12:17:40;12.10;99.90
21563;DHT22;10942;47.894;11.424;2024-01-30T12:20:07;12.10;99.90
21563;DHT22;10942;47.894;11.424;2024-01-30T12:22:37;12.10;99.90
21563;DHT22;10942;47.894;11.424;2024-01-30T12:25:07;12.20;99.90
21563;DHT22;10942;47.894;11.424;2024-01-30T12:27:34;12.20;99.90
21563;DHT22;10942;47.894;11.424;2024-01-30T12:30:00;12.30;99.90
21563;DHT22;10942;47.894;11.424;2024-01-30T12:32:25;12.30;99.90
21563;DHT22;10942;47.894;11.424;2024-01-30T12:34:55;12.30;99.90
21563;DHT22;10942;47.894;11.424;2024-01-30T12:37:21;12.50;99.90
21563;DHT22;10942;47.894;11.424;2024-01-30T12:39:48;12.40;99.90
21563;DHT22;10942;47.894;11.424;2024-01-30T12:42:14;12.40;99.90
21563;DHT22;10942;47.894;11.424;2024-01-30T12:44:41;12.40;99.90
21563;DHT22;10942;47.894;11.424;2024-01-30T12:47:09;12.50;99.90
21563;DHT22;10942;47.894;11.424;2024-01-30T12:49:35;12.50;99.90
21563;DHT22;10942;47.894;11.424;2024-01-30T12:52:01;12.50;99.90
21563;DHT22;10942;47.894;11.424;2024-01-30T12:54:26;12.60;99.90
21563;DHT22;10942;47.894;11.424;2024-01-30T12:56:52;12.50;99.90
21563;DHT22;10942;47.894;11.424;2024-01-30T12:59:18;12.60;99.90
21563;DHT22;10942;47.894;11.424;2024-01-30T13:01:44;12.60;99.90
21563;DHT22;10942;47.894;11.424;2024-01-30T13:04:09;12.60;99.90
21563;DHT22;10942;47.894;11.424;2024-01-30T13:06:35;12.70;99.90
21563;DHT22;10942;47.894;11.424;2024-01-30T13:09:01;12.70;99.90
21563;DHT22;10942;47.894;11.424;2024-01-30T13:11:26;12.60;99.90
21563;DHT22;10942;47.894;11.424;2024-01-30T13:13:52;12.60;99.90
21563;DHT22;10942;47.894;11.424;2024-01-30T13:16:18;12.60;99.90
21563;DHT22;10942;47.894;11.424;2024-01-30T13:18:44;12.60;99.90
21563;DHT22;10942;47.894;11.424;2024-01-30T13:21:10;12.60;99.90
21563;DHT22;10942;47.894;11.424;2024-01-30T13:23:35;12.60;99.90
21563;DHT22;10942;47.894;11.424;2024-01-30T13:26:01;12.50;99.90
21563;DHT22;10942;47.894;11.424;2024-01-30T13:28:27;12.40;99.90
21563;DHT22;10942;47.894;11.424;2024-01-30T13:30:53;12.40;99.90
21563;DHT22;10942;47.894;11.424;2024-01-30T13:33:19;12.30;99.90
21563;DHT22;10942;47.894;11.424;2024-01-30T13:35:45;12.30;99.90
21563;DHT22;10942;47.894;11.424;2024-01-30T13:38:10;12.30;99.90
21563;DHT22;10942;47.894;11.424;2024-01-30T13:40:36;12.20;99.90
21563;DHT22;10942;47.894;11.424;2024-01-30T13:43:02;12.30;99.90
21563;DHT22;10942;47.894;11.424;2024-01-30T13:45:28;12.30;99.90
21563;DHT22;10942;47.894;11.424;2024-01-30T13:47:54;12.30;99.90
21563;DHT22;10942;47.894;11.424;2024-01-30T13:50:19;12.30;99.90
21563;DHT22;10942;47.894;11.424;2024-01-30T13:52:45;12.30;99.90
21563;DHT22;10942;47.894;11.424;2024-01-30T13:55:11;12.20;99.90
21563;DHT22;10942;47.894;11.424;2024-01-30T13:57:37;12.20;99.90
21563;DHT22;10942;47.894;11.424;2024-01-30T14:00:04;12.00;99.90
21563;DHT22;10942;47.894;11.424;2024-01-30T14:02:38;12.20;99.90
21563;DHT22;10942;47.894;11.424;2024-01-30T14:05:04;12.20;99.90
21563;DHT22;10942;47.894;11.424;2024-01-30T14:07:30;12.10;99.90
21563;DHT22;10942;47.894;11.424;2024-01-30T14:09:56;12.10;99.90
21563;DHT22;10942;47.894;11.424;2024-01-30T14:12:21;12.10;99.90
21563;DHT22;10942;47.894;11.424;2024-01-30T15:23:07;10.70;99.90
21563;DHT22;10942;47.894;11.424;2024-01-30T15:25:33;10.60;99.90
21563;DHT22;10942;47.894;11.424;2024-01-30T15:27:58;10.50;99.90
21563;DHT22;10942;47.894;11.424;2024-01-30T15:30:24;10.40;99.90
21563;DHT22;10942;47.894;11.424;2024-01-30T15:32:50;10.30;99.90
21563;DHT22;10942;47.894;11.424;2024-01-30T15:35:16;10.20;99.90
21563;DHT22;10942;47.894;11.424;2024-01-30T15:37:42;10.10;99.90
21563;DHT22;10942;47.894;11.424;2024-01-30T15:40:08;10.00;99.90
21563;DHT22;10942;47.894;11.424;2024-01-30T15:42:36;9.90;99.90
21563;DHT22;10942;47.894;11.424;2024-01-30T15:45:02;9.80;99.90
21563;DHT22;10942;47.894;11.424;2024-01-30T15:47:27;9.70;99.90
21563;DHT22;10942;47.894;11.424;2024-01-30T15:59:39;9.10;99.90
21563;DHT22;10942;47.894;11.424;2024-01-30T16:02:05;9.10;99.90
21563;DHT22;10942;47.894;11.424;2024-01-30T16:19:08;8.50;99.90
21563;DHT22;10942;47.894;11.424;2024-01-30T16:21:34;8.40;99.90
21563;DHT22;10942;47.894;11.424;2024-01-30T16:23:59;8.30;99.90
21563;DHT22;10942;47.894;11.424;2024-01-30T16:26:26;8.10;99.90
21563;DHT22;10942;47.894;11.424;2024-01-30T16:28:53;8.10;99.90
21563;DHT22;10942;47.894;11.424;2024-01-30T16:31:19;8.00;99.90
21563;DHT22;10942;47.894;11.424;2024-01-30T16:33:49;7.90;99.90
21563;DHT22;10942;47.894;11.424;2024-01-30T16:36:15;7.80;99.90
21563;DHT22;10942;47.894;11.424;2024-01-30T16:38:41;7.70;99.90
21563;DHT22;10942;47.894;11.424;2024-01-30T16:41:07;7.60;99.90
21563;DHT22;10942;47.894;11.424;2024-01-30T16:43:33;7.50;99.90
21563;DHT22;10942;47.894;11.424;2024-01-30T16:45:59;7.50;99.90
21563;DHT22;10942;47.894;11.424;2024-01-30T16:48:26;7.40;99.90
21563;DHT22;10942;47.894;11.424;2024-01-30T16:50:52;7.30;99.90
21563;DHT22;10942;47.894;11.424;2024-01-30T16:53:18;7.20;99.90
21563;DHT22;10942;47.894;11.424;2024-01-30T16:55:43;7.20;99.90
21563;DHT22;10942;47.894;11.424;2024-01-30T16:58:09;7.10;99.90
21563;DHT22;10942;47.894;11.424;2024-01-30T17:00:37;7.10;99.90
21563;DHT22;10942;47.894;11.424;2024-01-30T17:03:03;7.00;99.90
21563;DHT22;10942;47.894;11.424;2024-01-30T17:05:29;7.00;99.90
21563;DHT22;10942;47.894;11.424;2024-01-30T17:07:55;6.90;99.90
21563;DHT22;10942;47.894;11.424;2024-01-30T17:10:23;6.80;99.90
21563;DHT22;10942;47.894;11.424;2024-01-30T17:12:49;6.80;99.90
21563;DHT22;10942;47.894;11.424;2024-01-30T17:15:15;6.70;99.90
21563;DHT22;10942;47.894;11.424;2024-01-30T17:17:41;6.70;99.90
21563;DHT22;10942;47.894;11.424;2024-01-30T17:20:07;6.60;99.90
21563;DHT22;10942;47.894;11.424;2024-01-30T17:22:33;6.60;99.90
21563;DHT22;10942;47.894;11.424;2024-01-30T17:24:59;6.50;99.90
21563;DHT22;10942;47.894;11.424;2024-01-30T17:27:25;6.40;99.90
21563;DHT22;10942;47.894;11.424;2024-01-30T17:29:50;6.40;99.90